createdAt,value
2019-02-28T00:00:52.127Z,8.25
2019-02-28T00:03:17.832Z,8.28
2019-02-28T00:05:49.003Z,8.17
2019-02-28T00:08:16.609Z,8.24
2019-02-28T00:10:43.227Z,8.21
2019-02-28T00:13:10.115Z,8.10
2019-02-28T00:15:36.883Z,8.06
2019-02-28T00:18:04.021Z,8.13
2019-02-28T00:20:32.914Z,8.23
2019-02-28T00:22:59.270Z,8.16
2019-02-28T00:25:31.098Z,8.17
2019-02-28T00:27:58.000Z,8.20
2019-02-28T00:30:24.652Z,8.02
2019-02-28T00:32:51.287Z,7.97
2019-02-28T00:35:18.096Z,7.81
2019-02-28T00:37:44.856Z,7.86
2019-02-28T00:42:58.400Z,7.78
2019-02-28T00:45:24.809Z,7.92
2019-02-28T00:47:51.507Z,7.71
2019-02-28T00:50:23.474Z,7.67
2019-02-28T00:52:54.551Z,7.49
2019-02-28T00:55:18.615Z,7.58
2019-02-28T01:00:37.149Z,7.53
2019-02-28T01:03:08.794Z,7.65
2019-02-28T01:05:37.646Z,7.64
2019-02-28T01:08:04.314Z,7.72
2019-02-28T01:10:31.345Z,7.69
2019-02-28T01:12:58.174Z,7.84
2019-02-28T01:15:24.903Z,7.58
2019-02-28T01:17:51.589Z,7.54
2019-02-28T01:20:18.504Z,7.64
2019-02-28T01:22:45.092Z,7.63
2019-02-28T01:25:11.817Z,7.64
2019-02-28T01:30:32.083Z,7.49
2019-02-28T01:32:59.698Z,7.46
2019-02-28T01:35:26.363Z,7.51
2019-02-28T01:37:53.084Z,7.49
2019-02-28T01:40:32.129Z,7.64
2019-02-28T01:42:58.810Z,7.43
2019-02-28T01:47:58.295Z,7.53
2019-02-28T01:50:24.870Z,7.27
2019-02-28T01:52:51.633Z,7.42
2019-02-28T01:55:18.318Z,7.38
2019-02-28T01:57:45.017Z,7.21
2019-02-28T02:00:11.725Z,7.17
2019-02-28T02:02:39.227Z,7.06
2019-02-28T02:05:05.933Z,7.02
2019-02-28T02:10:17.590Z,7.24
2019-02-28T02:13:03.199Z,6.94
2019-02-28T02:15:32.557Z,7.03
2019-02-28T02:17:59.232Z,7.16
2019-02-28T02:20:26.249Z,7.25
2019-02-28T02:22:54.651Z,7.12
2019-02-28T02:25:21.305Z,7.13
2019-02-28T02:27:52.957Z,7.25
2019-02-28T02:30:16.411Z,7.18
2019-02-28T02:32:43.075Z,7.07
2019-02-28T02:35:09.734Z,7.09
2019-02-28T02:37:36.537Z,7.14
2019-02-28T02:40:03.146Z,7.17
2019-02-28T02:42:29.806Z,7.28
2019-02-28T02:44:56.536Z,7.31
2019-02-28T02:50:10.934Z,7.31
2019-02-28T02:55:06.154Z,7.01
2019-02-28T02:57:33.075Z,7.00
2019-02-28T02:59:59.824Z,6.88
2019-02-28T03:02:28.804Z,6.83
2019-02-28T03:04:58.504Z,6.92
2019-02-28T03:07:25.010Z,7.13
2019-02-28T03:09:51.704Z,6.91
2019-02-28T03:12:20.244Z,7.00
2019-02-28T03:14:48.773Z,6.99
2019-02-28T03:17:15.306Z,7.01
2019-02-28T03:19:42.193Z,7.05
2019-02-28T03:22:08.987Z,7.03
2019-02-28T03:24:35.843Z,7.03
2019-02-28T03:27:03.476Z,6.81
2019-02-28T03:29:30.123Z,6.82
2019-02-28T03:31:59.589Z,6.72
2019-02-28T03:34:33.775Z,6.67
2019-02-28T03:37:00.525Z,6.53
2019-02-28T03:39:27.522Z,6.69
2019-02-28T03:41:54.308Z,6.69
2019-02-28T03:44:21.880Z,6.70
2019-02-28T03:46:48.763Z,6.60
2019-02-28T03:51:51.234Z,6.72
2019-02-28T03:54:19.115Z,6.77
2019-02-28T03:56:51.030Z,6.81
2019-02-28T03:59:18.197Z,6.79
2019-02-28T04:01:45.684Z,6.67
2019-02-28T04:04:13.279Z,6.59
2019-02-28T04:06:42.081Z,6.60
2019-02-28T04:09:09.907Z,6.63
2019-02-28T04:11:51.033Z,6.62
2019-02-28T04:14:17.869Z,6.83
2019-02-28T04:16:52.517Z,6.67
2019-02-28T04:19:21.345Z,6.74
2019-02-28T04:21:46.669Z,6.64
2019-02-28T04:24:14.918Z,6.57
2019-02-28T04:26:47.834Z,6.50
2019-02-28T04:29:29.787Z,6.33
2019-02-28T04:31:52.428Z,6.23
2019-02-28T04:34:20.173Z,6.43
2019-02-28T04:36:53.145Z,6.52
2019-02-28T04:39:31.864Z,6.62
2019-02-28T04:41:59.567Z,6.48
2019-02-28T04:44:31.288Z,6.34
2019-02-28T04:46:59.562Z,6.24
2019-02-28T04:49:33.204Z,6.39
2019-02-28T04:52:00.005Z,6.52
2019-02-28T04:54:27.812Z,6.60
2019-02-28T04:56:55.047Z,6.65
2019-02-28T05:02:06.146Z,6.86
2019-02-28T05:07:06.150Z,6.90
2019-02-28T05:09:32.850Z,6.96
2019-02-28T05:11:59.479Z,6.99
2019-02-28T05:17:10.778Z,6.93
2019-02-28T05:19:37.548Z,6.84
2019-02-28T05:22:04.288Z,6.90
2019-02-28T05:24:32.583Z,6.89
2019-02-28T05:29:52.827Z,6.91
2019-02-28T05:32:19.552Z,6.80
2019-02-28T05:34:47.438Z,6.81
2019-02-28T05:37:15.357Z,6.72
2019-02-28T05:39:45.121Z,6.77
2019-02-28T05:42:12.087Z,6.73
2019-02-28T05:44:40.301Z,6.72
2019-02-28T05:47:11.940Z,6.66
2019-02-28T05:49:40.680Z,6.90
2019-02-28T05:52:07.048Z,6.88
2019-02-28T05:57:17.812Z,6.84
2019-02-28T05:59:44.563Z,7.03
2019-02-28T06:02:12.182Z,7.15
2019-02-28T06:04:38.917Z,7.13
2019-02-28T06:07:05.634Z,6.90
2019-02-28T06:12:21.212Z,7.05
2019-02-28T06:14:47.920Z,7.62
2019-02-28T06:17:17.388Z,7.23
2019-02-28T06:19:43.581Z,6.96
2019-02-28T06:24:44.823Z,7.35
2019-02-28T06:27:11.895Z,7.45
2019-02-28T06:29:42.231Z,7.62
2019-02-28T06:32:08.940Z,7.86
2019-02-28T06:34:35.715Z,7.93
2019-02-28T06:37:03.729Z,8.03
2019-02-28T06:39:30.816Z,8.16
2019-02-28T06:41:57.513Z,8.44
2019-02-28T06:44:27.751Z,8.56
2019-02-28T06:46:54.501Z,8.54
2019-02-28T06:49:21.069Z,8.56
2019-02-28T06:51:51.310Z,8.68
2019-02-28T06:54:21.602Z,8.80
2019-02-28T06:56:48.622Z,9.01
2019-02-28T06:59:19.457Z,9.22
2019-02-28T07:01:47.193Z,9.48
2019-02-28T07:07:03.628Z,9.80
2019-02-28T07:09:36.448Z,10.04
2019-02-28T07:12:08.050Z,10.28
2019-02-28T07:17:12.293Z,10.50
2019-02-28T07:19:40.306Z,10.64
2019-02-28T07:22:07.337Z,11.01
2019-02-28T07:24:38.207Z,11.31
2019-02-28T07:27:05.701Z,11.58
2019-02-28T07:29:34.450Z,11.79
2019-02-28T07:40:08.648Z,12.38
2019-02-28T07:42:37.548Z,12.41
2019-02-28T07:45:05.698Z,12.65
2019-02-28T07:47:51.338Z,12.90
2019-02-28T07:50:16.241Z,13.13
2019-02-28T07:52:43.726Z,13.36
2019-02-28T07:55:13.801Z,13.45
2019-02-28T07:57:44.442Z,13.41
2019-02-28T08:00:17.476Z,13.63
2019-02-28T08:02:42.496Z,13.70
2019-02-28T08:07:50.514Z,14.03
2019-02-28T08:10:18.293Z,14.08
2019-02-28T08:12:58.178Z,14.22
2019-02-28T08:15:26.061Z,14.41
2019-02-28T08:17:59.931Z,14.63
2019-02-28T08:20:33.789Z,14.58
2019-02-28T08:23:01.442Z,14.86
2019-02-28T08:25:29.297Z,14.97
2019-02-28T08:28:00.766Z,15.07
2019-02-28T08:30:26.350Z,15.21
2019-02-28T08:32:57.461Z,15.47
2019-02-28T08:35:34.051Z,15.68
2019-02-28T08:37:59.908Z,15.86
2019-02-28T08:40:28.923Z,16.07
2019-02-28T08:42:56.669Z,16.02
2019-02-28T08:48:12.630Z,16.13
2019-02-28T08:50:39.402Z,16.10
2019-02-28T08:53:06.050Z,16.33
2019-02-28T08:55:32.773Z,16.50
2019-02-28T08:58:05.123Z,16.80
2019-02-28T09:00:32.842Z,17.11
2019-02-28T09:02:56.600Z,17.12
2019-02-28T09:05:26.171Z,17.25
2019-02-28T09:07:52.023Z,17.33
2019-02-28T09:10:19.044Z,17.30
2019-02-28T09:15:38.356Z,17.87
2019-02-28T09:18:07.337Z,17.96
2019-02-28T09:20:34.127Z,18.16
2019-02-28T09:23:02.180Z,18.25
2019-02-28T09:25:31.306Z,18.39
2019-02-28T09:27:57.740Z,18.61
2019-02-28T09:30:26.454Z,18.84
2019-02-28T09:32:57.751Z,18.90
2019-02-28T09:35:24.495Z,19.27
2019-02-28T09:37:51.153Z,19.17
2019-02-28T09:40:18.408Z,19.16
2019-02-28T09:42:47.921Z,19.51
2019-02-28T09:45:13.426Z,19.38
2019-02-28T09:47:40.514Z,19.15
2019-02-28T09:50:08.071Z,19.47
2019-02-28T09:52:34.800Z,19.86
2019-02-28T09:57:33.612Z,20.37
2019-02-28T10:00:02.793Z,20.35
2019-02-28T10:02:29.858Z,20.49
2019-02-28T10:04:56.650Z,20.67
2019-02-28T10:07:26.485Z,20.84
2019-02-28T10:09:56.538Z,21.12
2019-02-28T10:12:24.340Z,21.39
2019-02-28T10:14:52.058Z,21.58
2019-02-28T10:17:22.710Z,21.68
2019-02-28T10:19:53.078Z,21.69
2019-02-28T10:22:19.827Z,21.81
2019-02-28T10:24:50.501Z,22.07
2019-02-28T10:27:20.106Z,22.32
2019-02-28T10:29:48.374Z,22.45
2019-02-28T10:32:20.986Z,22.52
2019-02-28T10:34:50.365Z,22.69
2019-02-28T10:37:22.649Z,22.63
2019-02-28T10:39:49.181Z,22.70
2019-02-28T10:42:20.266Z,22.73
2019-02-28T10:44:50.129Z,22.97
2019-02-28T10:47:17.163Z,23.12
2019-02-28T10:49:44.160Z,23.30
2019-02-28T10:52:10.824Z,23.53
2019-02-28T10:54:48.659Z,23.49
2019-02-28T10:59:59.201Z,24.00
2019-02-28T11:02:25.892Z,23.91
2019-02-28T11:04:52.552Z,24.03
2019-02-28T11:07:19.302Z,24.33
2019-02-28T11:09:46.341Z,24.51
2019-02-28T11:12:13.105Z,24.56
2019-02-28T11:17:24.107Z,25.19
2019-02-28T11:19:51.998Z,25.27
2019-02-28T11:22:19.691Z,25.40
2019-02-28T11:24:46.609Z,25.31
2019-02-28T11:27:16.149Z,25.18
2019-02-28T11:29:43.704Z,25.11
2019-02-28T11:32:26.406Z,25.41
2019-02-28T11:34:55.462Z,25.77
2019-02-28T11:37:22.713Z,25.55
2019-02-28T11:39:50.107Z,25.60
2019-02-28T11:45:13.587Z,25.71
2019-02-28T11:47:46.677Z,25.64
2019-02-28T11:50:14.032Z,25.67
2019-02-28T11:52:41.360Z,25.72
2019-02-28T11:55:08.752Z,25.40
2019-02-28T11:57:37.772Z,24.98
2019-02-28T12:00:04.926Z,25.29
2019-02-28T12:05:17.865Z,25.79
2019-02-28T12:07:45.150Z,25.63
2019-02-28T12:10:12.400Z,25.29
2019-02-28T12:12:41.592Z,25.40
2019-02-28T12:15:09.047Z,25.65
2019-02-28T12:17:36.345Z,25.78
2019-02-28T12:20:12.076Z,25.88
2019-02-28T12:22:39.424Z,25.96
2019-02-28T12:25:07.669Z,25.88
2019-02-28T12:27:35.973Z,26.19
2019-02-28T12:30:03.343Z,26.66
2019-02-28T12:32:30.846Z,26.98
2019-02-28T12:35:01.411Z,26.22
2019-02-28T12:37:27.982Z,26.42
2019-02-28T12:40:04.163Z,26.80
2019-02-28T12:42:34.366Z,27.13
2019-02-28T12:45:00.653Z,27.81
2019-02-28T12:47:29.445Z,28.14
2019-02-28T12:52:41.886Z,28.48
2019-02-28T12:55:10.645Z,28.89
2019-02-28T12:57:38.088Z,28.73
2019-02-28T13:00:05.359Z,28.27
2019-02-28T13:02:35.466Z,27.98
2019-02-28T13:05:02.785Z,27.95
2019-02-28T13:07:30.417Z,27.90
2019-02-28T13:10:00.236Z,28.27
2019-02-28T13:12:27.623Z,28.59
2019-02-28T13:17:46.074Z,29.26
2019-02-28T13:20:17.105Z,29.17
2019-02-28T13:22:45.624Z,28.37
2019-02-28T13:25:15.233Z,28.27
2019-02-28T13:27:46.438Z,28.68
2019-02-28T13:30:16.557Z,28.80
2019-02-28T13:32:46.078Z,29.19
2019-02-28T13:35:45.173Z,29.66
2019-02-28T13:38:07.158Z,29.74
2019-02-28T13:40:36.444Z,29.62
2019-02-28T13:43:07.379Z,29.74
2019-02-28T13:45:35.256Z,29.31
2019-02-28T13:48:03.487Z,29.19
2019-02-28T13:50:32.793Z,29.10
2019-02-28T13:56:01.043Z,28.86
2019-02-28T13:58:31.705Z,28.94
2019-02-28T14:00:58.973Z,28.40
2019-02-28T14:03:29.537Z,28.39
2019-02-28T14:06:12.216Z,28.27
2019-02-28T14:08:42.059Z,28.51
2019-02-28T14:11:16.056Z,28.47
2019-02-28T14:13:45.834Z,28.16
2019-02-28T14:16:13.274Z,28.53
2019-02-28T14:21:20.853Z,28.84
2019-02-28T14:23:55.901Z,28.94
2019-02-28T14:28:56.876Z,28.57
2019-02-28T14:31:24.359Z,28.15
2019-02-28T14:33:54.410Z,28.23
2019-02-28T14:36:25.380Z,28.33
2019-02-28T14:38:56.408Z,28.12
2019-02-28T14:41:24.725Z,28.32
2019-02-28T14:43:57.848Z,28.25
2019-02-28T14:46:34.632Z,28.39
2019-02-28T14:48:59.882Z,28.53
2019-02-28T14:53:56.316Z,28.29
2019-02-28T14:56:24.680Z,27.97
2019-02-28T14:58:54.506Z,27.49
2019-02-28T15:01:22.111Z,27.38
2019-02-28T15:03:49.278Z,26.89
2019-02-28T15:06:16.604Z,26.64
2019-02-28T15:08:43.766Z,26.32
2019-02-28T15:11:14.609Z,26.05
2019-02-28T15:13:41.921Z,25.98
2019-02-28T15:16:09.127Z,26.08
2019-02-28T15:18:36.352Z,25.94
2019-02-28T15:21:04.516Z,25.51
2019-02-28T15:23:34.209Z,25.31
2019-02-28T15:26:01.478Z,25.45
2019-02-28T15:28:28.791Z,25.70
2019-02-28T15:30:56.326Z,25.41
2019-02-28T15:33:30.151Z,25.36
2019-02-28T15:35:55.793Z,25.19
2019-02-28T15:38:23.517Z,25.16
2019-02-28T15:40:51.228Z,25.22
2019-02-28T15:43:18.577Z,25.30
2019-02-28T15:45:45.722Z,25.16
2019-02-28T15:48:14.368Z,24.98
2019-02-28T15:50:41.690Z,24.93
2019-02-28T15:53:11.253Z,24.97
2019-02-28T15:55:38.059Z,24.66
2019-02-28T15:58:05.871Z,24.81
2019-02-28T16:00:34.082Z,24.68
2019-02-28T16:03:02.093Z,24.51
2019-02-28T16:05:29.596Z,24.65
2019-02-28T16:07:57.819Z,24.53
2019-02-28T16:10:25.207Z,24.26
2019-02-28T16:12:52.383Z,24.03
2019-02-28T16:15:19.610Z,23.95
2019-02-28T16:17:47.197Z,23.86
2019-02-28T16:20:14.499Z,23.66
2019-02-28T16:22:41.730Z,23.73
2019-02-28T16:25:11.524Z,23.85
2019-02-28T16:27:39.339Z,24.00
2019-02-28T16:30:07.768Z,23.75
2019-02-28T16:32:36.165Z,23.98
2019-02-28T16:35:04.311Z,24.06
2019-02-28T16:37:32.291Z,23.99
2019-02-28T16:40:01.517Z,23.98
2019-02-28T16:42:28.764Z,23.86
2019-02-28T16:44:55.983Z,23.76
2019-02-28T16:47:24.316Z,24.03
2019-02-28T16:49:52.393Z,24.08
2019-02-28T16:52:23.409Z,23.93
2019-02-28T16:54:53.363Z,23.70
2019-02-28T16:57:19.942Z,23.37
2019-02-28T16:59:49.196Z,23.00
2019-02-28T17:02:16.519Z,23.25
2019-02-28T17:04:43.726Z,23.23
2019-02-28T17:07:15.961Z,23.41
2019-02-28T17:09:43.456Z,23.21
2019-02-28T17:12:12.724Z,23.54
2019-02-28T17:14:39.930Z,23.54
2019-02-28T17:17:12.542Z,23.46
2019-02-28T17:19:39.658Z,23.61
2019-02-28T17:22:07.931Z,23.56
2019-02-28T17:24:37.863Z,23.44
2019-02-28T17:27:07.598Z,23.50
2019-02-28T17:29:36.663Z,23.55
2019-02-28T17:32:07.947Z,23.60
2019-02-28T17:34:35.215Z,23.49
2019-02-28T17:37:06.871Z,23.47
2019-02-28T17:39:38.381Z,23.21
2019-02-28T17:42:08.900Z,23.14
2019-02-28T17:44:37.544Z,23.14
2019-02-28T17:49:52.663Z,22.86
2019-02-28T17:52:23.741Z,22.46
2019-02-28T17:54:54.215Z,22.09
2019-02-28T17:57:27.136Z,21.77
2019-02-28T17:59:56.609Z,21.51
2019-02-28T18:02:26.390Z,21.36
2019-02-28T18:05:03.691Z,21.22
2019-02-28T18:07:32.706Z,21.06
2019-02-28T18:10:01.365Z,20.96
2019-02-28T18:12:29.799Z,20.69
2019-02-28T18:14:56.395Z,20.53
2019-02-28T18:17:22.984Z,20.30
2019-02-28T18:19:51.196Z,20.23
2019-02-28T18:22:20.177Z,20.16
2019-02-28T18:24:46.760Z,20.08
2019-02-28T18:27:13.391Z,20.03
2019-02-28T18:29:44.201Z,20.15
2019-02-28T18:32:12.453Z,20.10
2019-02-28T20:06:18.640Z,19.70
2019-02-28T20:11:30.039Z,19.81
2019-02-28T20:13:56.647Z,19.86
2019-02-28T20:16:23.268Z,20.18
2019-02-28T20:18:50.474Z,20.34
2019-02-28T20:21:17.119Z,20.49
2019-02-28T20:23:44.061Z,20.57
2019-02-28T20:26:10.725Z,20.66
2019-02-28T20:28:39.918Z,20.72
2019-02-28T20:31:07.805Z,20.69
2019-02-28T20:33:36.747Z,20.62
2019-02-28T20:36:03.677Z,20.66
2019-02-28T20:46:21.829Z,21.00
2019-02-28T20:48:49.673Z,20.93
2019-02-28T20:51:17.939Z,20.75
2019-02-28T20:53:45.678Z,20.70
2019-02-28T20:56:14.351Z,20.72
2019-02-28T20:58:46.227Z,20.91
2019-02-28T21:01:13.295Z,20.80
2019-02-28T21:03:42.919Z,20.60
2019-02-28T21:06:09.564Z,20.40
2019-02-28T21:08:36.249Z,20.10
2019-02-28T21:11:03.156Z,20.11
2019-02-28T21:13:30.034Z,20.01
2019-02-28T21:15:56.676Z,19.86
2019-02-28T21:18:23.597Z,19.73
2019-02-28T21:20:50.540Z,19.82
2019-02-28T21:23:17.339Z,20.03
2019-02-28T21:25:43.962Z,20.20
2019-02-28T21:28:10.869Z,20.16
2019-02-28T21:30:37.530Z,20.02
2019-02-28T21:33:04.390Z,19.95
2019-02-28T21:35:30.989Z,19.87
2019-02-28T21:37:57.723Z,19.65
2019-02-28T21:40:24.665Z,19.44
2019-02-28T21:42:51.602Z,19.32
2019-02-28T21:45:18.326Z,19.23
2019-02-28T21:47:45.206Z,19.09
2019-02-28T21:50:12.585Z,18.62
2019-02-28T21:52:39.384Z,18.36
2019-02-28T21:55:06.317Z,18.27
2019-02-28T21:57:33.340Z,18.02
2019-02-28T22:00:00.333Z,17.90
2019-02-28T22:02:26.922Z,17.72
2019-02-28T22:04:54.691Z,17.76
2019-02-28T22:07:21.406Z,17.64
2019-02-28T22:09:48.046Z,17.53
2019-02-28T22:12:15.567Z,17.17
2019-02-28T22:14:42.334Z,17.14
2019-02-28T22:17:09.640Z,17.11
2019-02-28T22:19:36.683Z,17.18
2019-02-28T22:22:03.314Z,17.06
2019-02-28T22:24:30.190Z,16.97
2019-02-28T22:26:57.630Z,16.97
2019-02-28T22:29:24.304Z,16.83
2019-02-28T22:31:51.206Z,16.71
2019-02-28T22:34:18.963Z,16.50
2019-02-28T22:36:45.598Z,16.55
2019-02-28T22:39:12.542Z,16.47
2019-02-28T22:41:39.637Z,16.52
2019-02-28T22:44:06.305Z,16.38
2019-02-28T22:46:33.204Z,16.07
2019-02-28T22:49:00.616Z,15.95
2019-02-28T22:51:27.254Z,15.93
2019-02-28T22:53:53.881Z,15.78
2019-02-28T22:56:21.642Z,15.78
2019-02-28T22:58:48.293Z,15.95
2019-02-28T23:01:14.975Z,15.90
2019-02-28T23:03:42.504Z,15.88
2019-02-28T23:06:09.394Z,15.61
2019-02-28T23:08:36.251Z,15.13
2019-02-28T23:11:03.581Z,14.94
2019-02-28T23:13:30.521Z,14.98
2019-02-28T23:15:57.388Z,15.00
2019-02-28T23:18:24.595Z,14.90
2019-02-28T23:20:51.384Z,14.76
2019-02-28T23:26:06.104Z,15.14
2019-02-28T23:28:30.781Z,14.77
2019-02-28T23:30:57.520Z,14.73
2019-02-28T23:33:24.651Z,14.93
2019-02-28T23:35:51.597Z,14.76
2019-02-28T23:38:18.459Z,14.83
2019-02-28T23:40:45.669Z,14.98
2019-02-28T23:43:12.555Z,15.03
2019-02-28T23:45:39.234Z,15.07
2019-02-28T23:48:06.485Z,15.01
2019-02-28T23:50:33.323Z,15.26
2019-02-28T23:53:00.260Z,15.27
2019-02-28T23:55:27.443Z,15.31
2019-02-28T23:57:54.424Z,15.28
